Ana Sayfa
METAR-TAF:

METAR-TAF

Havaalanları :

Mehrabad Havalimanı

Tahran, İran

Enlem: 35-41N, Boylam: 051-21E, yükseklik: 1204 m

Güncel hava durumu gözlemi

Rapor saat 22:00 UTC de 24 dakika önce yapıldı.
Sakin rüzgar
Sıcaklık 10°C
Nem 66%
Basınç 1021 hPa
Görüş mesafesi 10 km veya daha fazla
1500 m altında bulut yok ve kümülonimbus yok

METAR: OIII 192200Z 00000KT CAVOK 10/04 Q1021 A3016

Saat: 01:54 (22:24 UTC)

Tahmin

Rapor saat 17:50 UTC de 4 saat ve 34 dakika önce yapıldı.
Ayın 19'si saat 18 UTC'den ayın 20'si saat 24 UTC'ye kadar geçerli Tahmin
Rüzgar kuzeybatıdan 6 kt
Görüş mesafesi: 8000 m
Dönüşüyor
ayın 20'si saat 05 UTC'den ayın 20'si saat 06 UTC'ye kadar
Görüş mesafesi: 4000 m
Toz Pusu
Dönüşüyor
ayın 20'si saat 09 UTC'den ayın 20'si saat 10 UTC'ye kadar
Görüş mesafesi: 7000 m

TAF: OIII 191750Z 1918/2024 31003MPS 8000 NSC BECMG 2005/2006 4000 HZ BECMG 2009/2010 7000

4.000'den fazla havaalanı için hava durumu gözlemleri ve tahminleri (METAR ve TAF raporları).

Kullanılabilir istasyonlar harita üzerinde sarı ve kırmızı noktalarla gösterilir.

İstasyonun adını görmek için fareyi noktanın üzerinde gezdirin.

Sonrasında hava gözlem ve tahminlerini görmek için tıklayın.

Haritayı değiştirmek için: yaklaştırmak için siyah artı işaretli yeşil düğmeye ve uzaklaştırmak için de eksi işaretli düğmeye hızla tıklayın; bitişik haritalar için yeşil okları kullanın.


METAR-TAF: